createdAt,value
2023-05-05T00:04:56.825Z,2.10
2023-05-05T00:10:00.138Z,2.10
2023-05-05T00:15:02.611Z,1.93
2023-05-05T00:20:05.872Z,2.37
2023-05-05T00:25:09.509Z,2.37
2023-05-05T00:30:11.926Z,2.37
2023-05-05T00:35:13.585Z,2.10
2023-05-05T00:40:17.265Z,1.97
2023-05-05T00:45:20.446Z,2.53
2023-05-05T00:50:23.858Z,2.17
2023-05-05T00:55:28.725Z,2.43
2023-05-05T01:00:31.161Z,2.60
2023-05-05T01:05:43.070Z,2.53
2023-05-05T01:10:53.174Z,2.37
2023-05-05T01:16:01.746Z,2.30
2023-05-05T01:21:13.189Z,2.10
2023-05-05T01:26:48.475Z,2.00
2023-05-05T01:31:54.147Z,2.37
2023-05-05T01:37:04.696Z,2.77
2023-05-05T01:42:10.185Z,2.47
2023-05-05T01:47:16.211Z,2.70
2023-05-05T01:52:19.174Z,2.20
2023-05-05T01:57:23.347Z,2.13
2023-05-05T02:02:29.259Z,2.30
2023-05-05T02:07:34.645Z,2.10
2023-05-05T02:12:37.790Z,2.27
2023-05-05T02:17:43.223Z,2.43
2023-05-05T02:22:45.689Z,2.77
2023-05-05T02:27:51.264Z,2.50
2023-05-05T02:33:00.016Z,2.70
2023-05-05T02:38:03.644Z,2.27
2023-05-05T02:43:10.027Z,2.13
2023-05-05T02:48:13.513Z,2.77
2023-05-05T02:53:15.781Z,2.30
2023-05-05T02:58:24.578Z,2.83
2023-05-05T03:03:36.476Z,2.40
2023-05-05T03:08:44.710Z,2.40
2023-05-05T03:13:51.409Z,2.50
2023-05-05T03:18:57.430Z,1.90
2023-05-05T03:23:59.957Z,2.43
2023-05-05T03:29:02.054Z,2.93
2023-05-05T03:34:05.858Z,2.50
2023-05-05T03:39:07.612Z,2.27
2023-05-05T03:44:10.015Z,2.50
2023-05-05T03:49:13.457Z,2.67
2023-05-05T03:54:15.708Z,2.43
2023-05-05T03:59:17.743Z,2.47
2023-05-05T04:04:21.271Z,2.43
2023-05-05T04:09:23.633Z,2.97
2023-05-05T04:14:26.131Z,2.77
2023-05-05T04:19:32.386Z,2.30
2023-05-05T04:24:34.519Z,2.53
2023-05-05T04:29:36.206Z,2.53
2023-05-05T04:34:39.428Z,2.20
2023-05-05T04:39:42.097Z,2.37
2023-05-05T04:44:44.155Z,2.33
2023-05-05T04:49:47.568Z,3.17
2023-05-05T04:54:49.682Z,3.17
2023-05-05T04:59:51.767Z,2.40
2023-05-05T05:04:55.696Z,2.57
2023-05-05T05:09:58.243Z,4.17
2023-05-05T05:15:00.389Z,2.33
2023-05-05T05:20:04.249Z,2.33
2023-05-05T05:25:07.084Z,2.77
2023-05-05T05:30:10.563Z,2.83
2023-05-05T05:35:14.167Z,2.87
2023-05-05T05:40:16.981Z,2.80
2023-05-05T05:45:19.399Z,2.60
2023-05-05T05:50:23.014Z,2.70
2023-05-05T05:55:24.846Z,2.60
2023-05-05T06:00:26.574Z,2.85
2023-05-05T06:05:29.904Z,2.60
2023-05-05T06:10:32.156Z,3.30
2023-05-05T06:15:34.167Z,3.03
2023-05-05T06:20:37.228Z,2.90
2023-05-05T06:25:39.350Z,3.33
2023-05-05T06:30:41.429Z,3.03
2023-05-05T06:35:44.878Z,2.83
2023-05-05T06:40:48.118Z,3.47
2023-05-05T06:45:50.635Z,3.33
2023-05-05T06:50:54.105Z,2.93
2023-05-05T06:55:55.810Z,2.97
2023-05-05T07:00:58.025Z,3.43
2023-05-05T07:06:01.136Z,3.47
2023-05-05T07:11:03.317Z,3.60
2023-05-05T07:16:06.487Z,2.97
2023-05-05T07:21:10.422Z,3.77
2023-05-05T07:26:12.903Z,2.93
2023-05-05T07:31:15.348Z,3.10
2023-05-05T07:36:19.070Z,3.67
2023-05-05T07:41:21.167Z,3.17
2023-05-05T07:46:23.380Z,2.67
2023-05-05T07:51:26.662Z,2.70
2023-05-05T07:56:28.996Z,2.90
2023-05-05T08:01:31.274Z,3.03
2023-05-05T08:06:34.924Z,3.00
2023-05-05T08:11:37.072Z,3.57
2023-05-05T08:16:39.338Z,2.87
2023-05-05T08:21:43.334Z,2.97
2023-05-05T08:26:45.707Z,3.27
2023-05-05T08:31:47.891Z,2.80
2023-05-05T08:36:51.839Z,2.93
2023-05-05T08:41:53.954Z,2.37
2023-05-05T08:46:56.970Z,3.40
2023-05-05T08:52:02.914Z,2.57
2023-05-05T08:57:09.304Z,2.95
2023-05-05T09:02:13.194Z,3.00
2023-05-05T09:07:17.312Z,2.47
2023-05-05T09:12:20.286Z,2.88
2023-05-05T09:17:23.479Z,3.10
2023-05-05T09:22:35.578Z,2.95
2023-05-05T09:27:38.371Z,2.67
2023-05-05T09:32:44.631Z,2.58
2023-05-05T09:37:48.195Z,2.70
2023-05-05T09:43:01.423Z,2.80
2023-05-05T09:48:05.637Z,2.92
2023-05-05T09:53:10.630Z,2.65
2023-05-05T09:58:19.261Z,2.78
2023-05-05T10:03:21.474Z,2.50
2023-05-05T10:08:26.460Z,2.45
2023-05-05T10:13:28.895Z,2.40
2023-05-05T10:18:32.526Z,2.13
2023-05-05T10:23:39.211Z,2.83
2023-05-05T10:28:44.469Z,2.75
2023-05-05T10:33:52.754Z,2.45
2023-05-05T10:38:56.912Z,2.10
2023-05-05T10:44:00.922Z,2.33
2023-05-05T10:49:13.550Z,2.10
2023-05-05T10:54:30.490Z,2.20
2023-05-05T10:59:42.856Z,2.42
2023-05-05T11:05:02.857Z,2.28
2023-05-05T11:10:07.874Z,2.42
2023-05-05T11:15:34.895Z,2.28
2023-05-05T11:21:02.970Z,2.22
2023-05-05T11:26:06.671Z,2.15
2023-05-05T11:31:19.978Z,1.58
2023-05-05T11:36:39.940Z,2.10
2023-05-05T11:42:16.375Z,2.10
2023-05-05T11:47:31.958Z,1.75
2023-05-05T11:52:34.454Z,2.15
2023-05-05T11:57:38.436Z,1.98
2023-05-05T12:02:40.696Z,1.73
2023-05-05T12:07:43.092Z,2.15
2023-05-05T12:12:47.038Z,1.80
2023-05-05T12:17:49.635Z,1.83
2023-05-05T12:22:51.911Z,1.80
2023-05-05T12:27:55.723Z,1.73
2023-05-05T12:33:02.578Z,1.90
2023-05-05T12:38:04.821Z,1.85
2023-05-05T12:43:07.946Z,1.80
2023-05-05T12:48:22.120Z,1.75
2023-05-05T12:53:25.461Z,1.42
2023-05-05T12:58:29.157Z,2.30
2023-05-05T13:03:31.401Z,1.40
2023-05-05T13:08:42.915Z,1.90
2023-05-05T13:13:46.289Z,1.48
2023-05-05T13:18:49.528Z,1.83
2023-05-05T13:23:51.875Z,1.70
2023-05-05T13:28:55.229Z,2.08
2023-05-05T13:33:57.191Z,2.08
2023-05-05T13:38:59.326Z,1.58
2023-05-05T13:44:03.110Z,1.50
2023-05-05T13:49:05.222Z,1.48
2023-05-05T13:54:07.988Z,1.88
2023-05-05T13:59:11.623Z,1.65
2023-05-05T14:04:13.739Z,2.22
2023-05-05T14:09:15.917Z,1.48
2023-05-05T14:14:19.369Z,1.50
2023-05-05T14:19:21.456Z,1.45
2023-05-05T14:24:23.212Z,1.70
2023-05-05T14:29:26.422Z,1.48
2023-05-05T14:34:28.334Z,1.45
2023-05-05T14:39:30.128Z,1.40
2023-05-05T14:44:33.268Z,1.58
2023-05-05T14:49:35.176Z,1.65
2023-05-05T14:54:37.088Z,1.27
2023-05-05T14:59:40.670Z,1.50
2023-05-05T15:04:42.925Z,1.77
2023-05-05T15:09:45.084Z,1.70
2023-05-05T15:14:48.462Z,1.70
2023-05-05T15:19:51.266Z,1.63
2023-05-05T15:24:53.663Z,1.50
2023-05-05T15:29:57.655Z,1.63
2023-05-05T15:35:01.040Z,2.00
2023-05-05T15:40:03.772Z,1.67
2023-05-05T15:45:08.425Z,1.65
2023-05-05T15:50:10.720Z,1.63
2023-05-05T15:55:12.689Z,1.50
2023-05-05T16:00:16.747Z,1.80
2023-05-05T16:05:21.358Z,1.60
2023-05-05T16:10:25.006Z,1.80
2023-05-05T16:15:28.085Z,1.67
2023-05-05T16:20:29.887Z,2.17
2023-05-05T16:25:31.592Z,1.60
2023-05-05T16:30:34.632Z,1.47
2023-05-05T16:35:36.376Z,1.60
2023-05-05T16:40:38.543Z,2.30
2023-05-05T16:45:42.139Z,1.70
2023-05-05T16:50:43.897Z,1.77
2023-05-05T16:55:50.130Z,1.60
2023-05-05T17:00:53.733Z,1.90
2023-05-05T17:05:55.836Z,1.90
2023-05-05T17:10:57.880Z,1.97
2023-05-05T17:16:01.001Z,1.87
2023-05-05T17:21:02.932Z,1.83
2023-05-05T17:26:04.885Z,1.53
2023-05-05T17:31:08.019Z,2.23
2023-05-05T17:36:10.383Z,1.90
2023-05-05T17:41:12.133Z,2.00
2023-05-05T17:46:15.231Z,1.53
2023-05-05T17:51:17.224Z,1.80
2023-05-05T17:56:19.127Z,2.10
2023-05-05T18:01:22.690Z,1.90
2023-05-05T18:06:25.093Z,2.07
2023-05-05T18:11:26.862Z,1.77
2023-05-05T18:16:30.112Z,1.77
2023-05-05T18:21:31.950Z,1.60
2023-05-05T18:26:33.721Z,2.20
2023-05-05T18:31:36.893Z,2.00
2023-05-05T18:36:38.813Z,2.23
2023-05-05T18:41:41.149Z,2.27
2023-05-05T18:46:44.536Z,2.63
2023-05-05T18:51:46.548Z,2.30
2023-05-05T18:56:48.483Z,2.20
2023-05-05T19:01:52.057Z,2.00
2023-05-05T19:06:54.326Z,2.47
2023-05-05T19:11:56.662Z,2.23
2023-05-05T19:17:00.066Z,2.40
2023-05-05T19:22:03.626Z,2.10
2023-05-05T19:27:05.628Z,2.37
2023-05-05T19:32:09.973Z,2.40
2023-05-05T19:37:12.209Z,2.27
2023-05-05T19:42:14.221Z,2.40
2023-05-05T19:47:17.318Z,2.27
2023-05-05T19:52:19.091Z,2.43
2023-05-05T19:57:21.020Z,2.40
2023-05-05T20:02:24.444Z,2.20
2023-05-05T20:07:26.310Z,2.70
2023-05-05T20:12:28.359Z,1.90
2023-05-05T20:17:32.047Z,2.07
2023-05-05T20:22:34.552Z,2.90
2023-05-05T20:27:39.366Z,2.13
2023-05-05T20:32:43.164Z,2.40
2023-05-05T20:37:44.811Z,2.70
2023-05-05T20:42:46.998Z,2.50
2023-05-05T20:47:50.248Z,2.67
2023-05-05T20:52:52.704Z,2.60
2023-05-05T20:57:55.056Z,2.60
2023-05-05T21:02:58.644Z,2.90
2023-05-05T21:08:01.261Z,2.50
2023-05-05T21:13:03.911Z,2.33
2023-05-05T21:18:07.405Z,2.43
2023-05-05T21:23:09.257Z,2.40
2023-05-05T21:28:11.419Z,2.67
2023-05-05T21:33:15.129Z,2.70
2023-05-05T21:38:16.899Z,2.77
2023-05-05T21:43:18.996Z,2.83
2023-05-05T21:48:22.547Z,2.80
2023-05-05T21:53:24.500Z,3.03
2023-05-05T21:58:26.931Z,2.73
2023-05-05T22:03:30.587Z,3.47
2023-05-05T22:08:32.797Z,3.17
2023-05-05T22:13:34.910Z,4.07
2023-05-05T22:18:38.488Z,3.30
2023-05-05T22:23:40.579Z,3.47
2023-05-05T22:28:42.727Z,3.53
2023-05-05T22:33:46.233Z,3.83
2023-05-05T22:38:48.278Z,3.50
2023-05-05T22:43:50.390Z,3.67
2023-05-05T22:48:53.810Z,3.83
2023-05-05T22:53:56.064Z,4.00
2023-05-05T22:58:58.514Z,3.87
2023-05-05T23:04:02.175Z,4.47
2023-05-05T23:09:04.356Z,4.93
2023-05-05T23:14:06.476Z,4.27
2023-05-05T23:19:09.876Z,4.23
2023-05-05T23:24:11.945Z,4.17
2023-05-05T23:29:13.696Z,5.20
2023-05-05T23:34:17.268Z,4.77
2023-05-05T23:39:19.324Z,4.00
2023-05-05T23:44:21.461Z,4.40
2023-05-05T23:49:24.985Z,4.50
2023-05-05T23:54:27.009Z,4.63
2023-05-05T23:59:29.303Z,5.13
